createdAt,value
2023-01-29T00:00:12.849Z,27.50
2023-01-29T00:03:00.658Z,24.90
2023-01-29T00:05:28.829Z,23.80
2023-01-29T00:07:57.685Z,23.80
2023-01-29T00:10:26.306Z,21.60
2023-01-29T00:12:54.485Z,19.30
2023-01-29T00:15:22.307Z,21.20
2023-01-29T00:17:50.272Z,20.90
2023-01-29T00:20:18.617Z,20.20
2023-01-29T00:22:46.837Z,16.80
2023-01-29T00:25:14.831Z,21.60
2023-01-29T00:27:43.940Z,20.70
2023-01-29T00:30:13.254Z,19.80
2023-01-29T00:32:41.596Z,19.70
2023-01-29T00:35:09.849Z,22.90
2023-01-29T00:37:38.371Z,22.30
2023-01-29T00:40:06.871Z,20.20
2023-01-29T00:42:53.451Z,27.40
2023-01-29T00:45:21.383Z,23.20
2023-01-29T00:47:49.356Z,24.60
2023-01-29T00:50:17.699Z,25.30
2023-01-29T00:52:46.271Z,22.60
2023-01-29T00:55:14.637Z,25.00
2023-01-29T00:57:42.482Z,20.20
2023-01-29T01:00:14.531Z,20.80
2023-01-29T01:03:02.830Z,21.40
2023-01-29T01:05:32.248Z,21.20
2023-01-29T01:08:00.442Z,19.90
2023-01-29T01:10:32.392Z,22.80
2023-01-29T01:13:05.869Z,19.80
2023-01-29T01:15:39.883Z,22.30
2023-01-29T01:18:08.046Z,24.60
2023-01-29T01:20:36.814Z,18.60
2023-01-29T01:23:05.416Z,20.80
2023-01-29T01:25:33.971Z,19.70
2023-01-29T01:28:01.843Z,20.60
2023-01-29T01:30:30.126Z,22.70
2023-01-29T01:32:58.070Z,23.10
2023-01-29T01:35:25.972Z,19.40
2023-01-29T01:37:53.910Z,21.50
2023-01-29T01:40:24.404Z,23.30
2023-01-29T01:42:58.588Z,29.20
2023-01-29T01:45:32.533Z,29.60
2023-01-29T01:48:35.163Z,28.90
2023-01-29T01:51:06.591Z,29.10
2023-01-29T01:53:46.926Z,29.80
2023-01-29T01:56:23.385Z,26.70
2023-01-29T01:58:54.988Z,29.60
2023-01-29T02:01:28.931Z,27.00
2023-01-29T02:04:26.757Z,29.00
2023-01-29T02:07:14.865Z,33.90
2023-01-29T02:09:54.996Z,25.80
2023-01-29T02:12:23.360Z,38.20
2023-01-29T02:14:51.405Z,41.80
2023-01-29T02:17:20.666Z,40.20
2023-01-29T02:19:54.307Z,79.80
2023-01-29T02:22:59.287Z,58.40
2023-01-29T02:26:05.374Z,42.30
2023-01-29T02:29:22.729Z,28.60
2023-01-29T02:32:17.402Z,29.60
2023-01-29T02:35:28.421Z,114.30
2023-01-29T02:38:21.344Z,35.20
2023-01-29T02:41:22.372Z,48.40
2023-01-29T02:44:13.789Z,73.60
2023-01-29T02:46:52.265Z,162.70
2023-01-29T02:49:49.045Z,93.00
2023-01-29T02:52:26.771Z,60.00
2023-01-29T02:55:04.849Z,86.70
2023-01-29T02:57:38.053Z,50.70
2023-01-29T03:00:18.037Z,44.90
2023-01-29T03:02:54.005Z,56.90
2023-01-29T03:05:29.905Z,29.20
2023-01-29T03:08:10.266Z,26.80
2023-01-29T03:10:44.036Z,43.70
2023-01-29T03:13:21.786Z,32.00
2023-01-29T03:16:01.595Z,28.00
2023-01-29T03:18:46.271Z,39.40
2023-01-29T03:21:39.524Z,20.60
2023-01-29T03:24:30.026Z,19.80
2023-01-29T03:27:21.357Z,20.60
2023-01-29T03:30:12.001Z,17.70
2023-01-29T03:32:52.072Z,57.20
2023-01-29T03:35:33.616Z,34.80
2023-01-29T03:38:04.109Z,73.90
2023-01-29T03:40:43.991Z,61.10
2023-01-29T03:43:27.509Z,71.10
2023-01-29T03:46:01.953Z,31.90
2023-01-29T03:48:44.652Z,46.90
2023-01-29T03:51:35.597Z,32.80
2023-01-29T03:54:20.301Z,75.70
2023-01-29T03:57:23.031Z,65.30
2023-01-29T03:59:58.227Z,44.30
2023-01-29T04:03:01.389Z,29.70
2023-01-29T04:05:36.690Z,28.10
2023-01-29T04:08:17.304Z,60.80
2023-01-29T04:10:49.359Z,30.80
2023-01-29T04:13:19.091Z,21.80
2023-01-29T04:15:54.379Z,18.00
2023-01-29T04:18:29.606Z,16.70
2023-01-29T04:21:07.469Z,30.00
2023-01-29T04:23:35.488Z,24.70
2023-01-29T04:26:28.256Z,16.60
2023-01-29T04:29:22.376Z,19.80
2023-01-29T04:32:05.904Z,18.50
2023-01-29T04:35:01.504Z,24.30
2023-01-29T04:37:40.412Z,21.40
2023-01-29T04:40:23.596Z,29.90
2023-01-29T04:43:05.256Z,28.80
2023-01-29T04:45:39.005Z,35.80
2023-01-29T04:48:25.872Z,28.70
2023-01-29T04:51:13.034Z,23.10
2023-01-29T04:54:11.128Z,18.70
2023-01-29T04:56:53.560Z,16.10
2023-01-29T04:59:31.171Z,16.50
2023-01-29T05:02:02.618Z,17.80
2023-01-29T05:04:34.494Z,15.10
2023-01-29T05:07:06.698Z,16.10
2023-01-29T05:09:37.026Z,15.40
2023-01-29T05:12:09.365Z,17.40
2023-01-29T05:14:39.959Z,16.10
2023-01-29T05:17:15.935Z,24.90
2023-01-29T05:19:44.824Z,19.40
2023-01-29T05:22:16.183Z,21.50
2023-01-29T05:24:44.995Z,16.80
2023-01-29T05:27:48.040Z,16.40
2023-01-29T05:30:16.430Z,19.40
2023-01-29T05:32:44.711Z,16.30
2023-01-29T05:35:12.615Z,17.10
2023-01-29T05:37:40.448Z,17.30
2023-01-29T05:40:09.878Z,19.60
2023-01-29T05:42:37.944Z,17.40
2023-01-29T05:45:06.829Z,22.30
2023-01-29T05:47:34.808Z,19.70
2023-01-29T05:50:02.846Z,30.50
2023-01-29T05:52:30.793Z,26.10
2023-01-29T05:54:58.753Z,20.80
2023-01-29T05:57:26.739Z,18.50
2023-01-29T05:59:54.529Z,23.10
2023-01-29T06:02:22.583Z,20.20
2023-01-29T06:04:52.706Z,21.60
2023-01-29T06:07:20.725Z,20.00
2023-01-29T06:09:48.720Z,15.80
2023-01-29T06:12:16.579Z,20.30
2023-01-29T06:14:44.748Z,21.00
2023-01-29T06:17:12.649Z,15.20
2023-01-29T06:19:40.652Z,15.70
2023-01-29T06:22:08.566Z,19.20
2023-01-29T06:24:36.683Z,16.80
2023-01-29T06:27:04.701Z,17.30
2023-01-29T06:29:32.695Z,15.10
2023-01-29T06:32:00.797Z,22.10
2023-01-29T06:34:28.864Z,17.60
2023-01-29T06:36:56.672Z,21.20
2023-01-29T06:39:24.593Z,17.20
2023-01-29T06:41:52.409Z,16.70
2023-01-29T06:44:20.545Z,18.00
2023-01-29T06:46:48.438Z,23.30
2023-01-29T06:49:16.599Z,18.60
2023-01-29T06:51:44.400Z,22.20
2023-01-29T06:54:12.388Z,19.00
2023-01-29T06:56:40.253Z,17.40
2023-01-29T06:59:08.278Z,17.20
2023-01-29T07:01:41.206Z,22.50
2023-01-29T07:04:09.275Z,19.40
2023-01-29T07:06:37.563Z,19.40
2023-01-29T07:09:05.751Z,19.00
2023-01-29T07:11:35.516Z,18.20
2023-01-29T07:14:03.872Z,36.30
2023-01-29T07:16:32.492Z,194.20
2023-01-29T07:19:01.212Z,125.10
2023-01-29T07:21:29.524Z,88.90
2023-01-29T07:23:57.568Z,92.50
2023-01-29T07:26:25.420Z,218.40
2023-01-29T07:28:53.248Z,53.00
2023-01-29T07:31:21.835Z,67.80
2023-01-29T07:33:49.807Z,51.70
2023-01-29T07:36:17.875Z,45.90
2023-01-29T07:38:49.739Z,50.50
2023-01-29T07:41:17.617Z,47.50
2023-01-29T07:43:46.500Z,50.60
2023-01-29T07:46:14.570Z,49.90
2023-01-29T07:48:42.482Z,36.00
2023-01-29T07:51:10.269Z,34.80
2023-01-29T07:53:38.144Z,38.60
2023-01-29T07:56:06.172Z,39.30
2023-01-29T07:58:36.603Z,36.30
2023-01-29T08:01:07.741Z,43.20
2023-01-29T08:03:35.923Z,102.60
2023-01-29T08:06:04.625Z,67.90
2023-01-29T08:08:32.515Z,51.10
2023-01-29T08:11:02.834Z,37.50
2023-01-29T08:13:30.707Z,85.60
2023-01-29T08:16:02.939Z,79.80
2023-01-29T08:18:31.759Z,45.50
2023-01-29T08:21:02.589Z,58.80
2023-01-29T08:23:31.029Z,105.80
2023-01-29T08:25:59.389Z,43.80
2023-01-29T08:28:27.451Z,63.90
2023-01-29T08:30:55.550Z,81.20
2023-01-29T08:33:37.194Z,56.60
2023-01-29T08:36:08.162Z,53.80
2023-01-29T08:38:36.565Z,119.00
2023-01-29T08:41:05.151Z,247.80
2023-01-29T08:43:33.014Z,72.10
2023-01-29T08:46:00.968Z,30.10
2023-01-29T08:48:30.384Z,77.20
2023-01-29T08:51:00.110Z,51.30
2023-01-29T08:53:28.468Z,77.90
2023-01-29T08:55:56.751Z,47.00
2023-01-29T08:58:24.614Z,31.40
2023-01-29T09:00:52.949Z,66.00
2023-01-29T09:03:21.033Z,38.00
2023-01-29T09:05:49.210Z,29.90
2023-01-29T09:08:17.070Z,63.20
2023-01-29T09:10:45.034Z,120.60
2023-01-29T09:13:13.055Z,115.80
2023-01-29T09:15:41.039Z,100.20
2023-01-29T09:18:08.857Z,70.20
2023-01-29T09:20:38.391Z,40.70
2023-01-29T09:23:10.719Z,60.30
2023-01-29T09:25:38.994Z,62.80
2023-01-29T09:28:07.036Z,41.30
2023-01-29T09:30:37.823Z,72.10
2023-01-29T09:33:07.123Z,56.90
2023-01-29T09:35:35.050Z,67.30
2023-01-29T09:38:03.578Z,37.10
2023-01-29T09:40:43.715Z,31.60
2023-01-29T09:43:27.743Z,28.10
2023-01-29T09:46:05.522Z,65.40
2023-01-29T09:48:36.512Z,52.70
2023-01-29T09:51:12.984Z,44.70
2023-01-29T09:53:51.234Z,56.40
2023-01-29T09:56:21.525Z,32.80
2023-01-29T09:58:49.386Z,34.90
2023-01-29T10:01:40.789Z,41.30
2023-01-29T10:04:23.603Z,57.50
2023-01-29T10:07:03.881Z,45.50
2023-01-29T10:10:00.284Z,34.30
2023-01-29T10:12:28.088Z,31.90
2023-01-29T10:15:25.226Z,40.20
2023-01-29T10:18:21.083Z,112.10
2023-01-29T10:21:10.774Z,183.70
2023-01-29T10:23:46.294Z,87.90
2023-01-29T10:26:14.374Z,195.90
2023-01-29T10:28:46.598Z,110.60
2023-01-29T10:31:24.637Z,125.40
2023-01-29T10:34:02.607Z,86.10
2023-01-29T10:36:43.499Z,150.90
2023-01-29T10:39:15.386Z,97.00
2023-01-29T10:42:11.074Z,102.80
2023-01-29T10:44:56.461Z,86.60
2023-01-29T10:47:37.014Z,142.80
2023-01-29T10:50:23.243Z,118.30
2023-01-29T10:53:03.461Z,60.00
2023-01-29T10:56:10.716Z,47.30
2023-01-29T10:58:54.951Z,47.90
2023-01-29T11:01:23.158Z,73.20
2023-01-29T11:04:04.407Z,110.60
2023-01-29T11:06:36.945Z,72.10
2023-01-29T11:09:14.135Z,41.30
2023-01-29T11:11:50.438Z,97.00
2023-01-29T11:14:25.160Z,190.20
2023-01-29T11:16:53.271Z,171.60
2023-01-29T11:19:37.755Z,184.80
2023-01-29T11:22:06.375Z,45.90
2023-01-29T11:24:34.481Z,94.30
2023-01-29T11:27:04.509Z,115.50
2023-01-29T11:29:43.991Z,72.00
2023-01-29T11:32:15.361Z,66.00
2023-01-29T11:34:59.837Z,119.20
2023-01-29T11:37:35.817Z,127.90
2023-01-29T11:42:47.871Z,81.80
2023-01-29T11:45:25.758Z,64.90
2023-01-29T11:47:57.477Z,62.10
2023-01-29T11:50:31.930Z,55.80
2023-01-29T11:53:01.587Z,39.10
2023-01-29T11:55:49.848Z,62.40
2023-01-29T11:58:26.401Z,136.70
2023-01-29T12:00:56.808Z,79.80
2023-01-29T12:03:44.461Z,181.40
2023-01-29T12:06:20.729Z,63.50
2023-01-29T12:09:01.188Z,58.30
2023-01-29T12:11:34.303Z,72.40
2023-01-29T12:14:30.238Z,56.70
2023-01-29T12:17:24.128Z,55.80
2023-01-29T12:20:01.589Z,73.90
2023-01-29T12:22:50.846Z,71.90
2023-01-29T12:25:30.328Z,117.90
2023-01-29T12:28:22.721Z,89.50
2023-01-29T12:31:00.210Z,66.70
2023-01-29T12:33:44.076Z,51.00
2023-01-29T12:36:19.718Z,56.50
2023-01-29T12:38:47.754Z,77.10
2023-01-29T12:41:22.212Z,90.40
2023-01-29T12:43:55.472Z,52.20
2023-01-29T12:46:37.450Z,72.20
2023-01-29T12:49:13.984Z,74.20
2023-01-29T12:52:00.818Z,50.30
2023-01-29T12:54:37.991Z,52.40
2023-01-29T12:57:18.050Z,43.80
2023-01-29T12:59:49.989Z,60.70
2023-01-29T13:02:30.213Z,71.90
2023-01-29T13:05:05.696Z,71.40
2023-01-29T13:07:40.183Z,61.00
2023-01-29T13:10:23.862Z,52.50
2023-01-29T13:13:06.482Z,38.30
2023-01-29T13:15:40.839Z,50.20
2023-01-29T13:18:38.078Z,89.90
2023-01-29T13:21:07.005Z,57.10
2023-01-29T13:23:40.065Z,54.10
2023-01-29T13:26:08.139Z,45.80
2023-01-29T13:28:36.636Z,39.40
2023-01-29T13:31:12.026Z,35.50
2023-01-29T13:33:43.536Z,41.10
2023-01-29T13:36:20.866Z,46.30
2023-01-29T13:39:15.101Z,56.20
2023-01-29T13:41:43.742Z,92.10
2023-01-29T13:44:26.484Z,73.50
2023-01-29T13:47:22.069Z,50.90
2023-01-29T13:50:15.725Z,42.20
2023-01-29T13:52:58.085Z,54.10
2023-01-29T13:55:40.741Z,92.90
2023-01-29T13:58:33.433Z,56.20
2023-01-29T14:01:01.843Z,44.90
2023-01-29T14:03:45.067Z,46.60
2023-01-29T14:06:40.171Z,125.30
2023-01-29T14:09:37.521Z,71.20
2023-01-29T14:12:25.632Z,123.50
2023-01-29T14:14:59.422Z,80.00
2023-01-29T14:17:29.070Z,61.80
2023-01-29T14:20:27.736Z,42.00
2023-01-29T14:23:02.011Z,136.40
2023-01-29T14:25:37.189Z,80.80
2023-01-29T14:28:15.220Z,49.10
2023-01-29T14:30:48.464Z,105.20
2023-01-29T14:33:36.923Z,58.30
2023-01-29T14:36:09.310Z,90.00
2023-01-29T14:38:38.922Z,76.10
2023-01-29T14:41:25.367Z,178.50
2023-01-29T14:44:45.884Z,75.00
2023-01-29T14:47:22.527Z,57.80
2023-01-29T14:50:02.060Z,64.80
2023-01-29T14:52:37.524Z,63.50
2023-01-29T14:55:26.906Z,38.90
2023-01-29T14:57:58.356Z,64.70
2023-01-29T15:00:38.898Z,71.30
2023-01-29T15:03:17.610Z,54.80
2023-01-29T15:05:47.886Z,68.80
2023-01-29T15:08:30.237Z,57.80
2023-01-29T15:11:21.615Z,62.40
2023-01-29T15:14:24.197Z,71.80
2023-01-29T15:17:11.205Z,50.80
2023-01-29T15:19:48.535Z,45.50
2023-01-29T15:22:29.862Z,59.00
2023-01-29T15:25:07.674Z,82.80
2023-01-29T15:27:35.901Z,72.60
2023-01-29T15:30:08.056Z,80.90
2023-01-29T15:32:38.029Z,76.50
2023-01-29T15:35:10.228Z,154.00
2023-01-29T15:37:38.337Z,95.10
2023-01-29T15:40:15.508Z,79.20
2023-01-29T15:42:48.911Z,61.70
2023-01-29T15:45:31.437Z,60.70
2023-01-29T15:48:13.136Z,134.30
2023-01-29T15:50:42.653Z,148.60
2023-01-29T15:53:18.336Z,91.70
2023-01-29T15:55:47.621Z,170.20
2023-01-29T15:58:19.086Z,192.90
2023-01-29T16:00:55.809Z,175.30
2023-01-29T16:03:25.532Z,116.00
2023-01-29T16:05:55.113Z,118.70
2023-01-29T16:08:26.207Z,93.40
2023-01-29T16:10:58.340Z,92.20
2023-01-29T16:13:30.365Z,115.60
2023-01-29T16:16:16.842Z,93.50
2023-01-29T16:18:59.603Z,61.30
2023-01-29T16:21:34.202Z,86.80
2023-01-29T16:24:09.687Z,75.00
2023-01-29T16:26:47.245Z,83.90
2023-01-29T16:29:19.361Z,91.20
2023-01-29T16:31:50.442Z,105.50
2023-01-29T16:34:33.769Z,72.20
2023-01-29T16:37:04.459Z,105.10
2023-01-29T16:39:35.977Z,66.10
2023-01-29T16:42:09.692Z,79.90
2023-01-29T16:44:45.355Z,110.40
2023-01-29T16:47:16.611Z,61.10
2023-01-29T16:49:49.434Z,54.70
2023-01-29T16:52:27.645Z,152.70
2023-01-29T16:55:20.624Z,114.90
2023-01-29T16:57:54.292Z,98.50
2023-01-29T17:00:26.251Z,126.30
2023-01-29T17:03:07.675Z,141.60
2023-01-29T17:05:38.213Z,103.60
2023-01-29T17:08:07.725Z,199.90
2023-01-29T17:10:36.238Z,100.00
2023-01-29T17:13:07.731Z,74.40
2023-01-29T17:15:43.192Z,95.70
2023-01-29T17:18:20.563Z,60.30
2023-01-29T17:20:49.786Z,108.30
2023-01-29T17:23:17.785Z,99.70
2023-01-29T17:25:46.993Z,77.60
2023-01-29T17:28:17.490Z,160.40
2023-01-29T17:30:56.654Z,85.00
2023-01-29T17:33:33.887Z,91.00
2023-01-29T17:36:01.700Z,207.60
2023-01-29T17:38:29.673Z,427.50
2023-01-29T17:41:13.055Z,329.30
2023-01-29T17:43:41.057Z,415.90
2023-01-29T17:46:13.816Z,158.20
2023-01-29T17:48:42.277Z,148.80
2023-01-29T17:51:14.973Z,174.40
2023-01-29T17:53:46.207Z,309.70
2023-01-29T17:56:21.806Z,164.70
2023-01-29T17:58:49.709Z,202.30
2023-01-29T18:01:17.763Z,314.30
2023-01-29T18:03:45.808Z,145.40
2023-01-29T18:06:26.337Z,231.10
2023-01-29T18:08:54.604Z,126.30
2023-01-29T18:11:22.899Z,83.70
2023-01-29T18:13:51.162Z,105.80
2023-01-29T18:16:22.008Z,70.20
2023-01-29T18:18:51.412Z,71.70
2023-01-29T18:21:19.490Z,65.10
2023-01-29T18:23:47.386Z,66.60
2023-01-29T18:26:16.661Z,120.20
2023-01-29T18:28:45.234Z,141.20
2023-01-29T18:31:14.493Z,84.60
2023-01-29T18:33:42.697Z,68.90
2023-01-29T18:36:10.906Z,46.40
2023-01-29T18:38:39.120Z,69.70
2023-01-29T18:41:12.541Z,116.90
2023-01-29T18:43:42.033Z,125.00
2023-01-29T18:46:10.404Z,69.60
2023-01-29T18:48:38.761Z,64.10
2023-01-29T18:51:07.571Z,41.80
2023-01-29T18:53:35.553Z,37.00
2023-01-29T18:56:05.800Z,46.60
2023-01-29T18:58:36.093Z,53.90
2023-01-29T19:01:09.698Z,51.70
2023-01-29T19:03:39.243Z,135.70
2023-01-29T19:06:09.622Z,66.50
2023-01-29T19:08:38.196Z,135.30
2023-01-29T19:11:08.344Z,359.70
2023-01-29T19:13:38.158Z,320.40
2023-01-29T19:16:10.500Z,259.50
2023-01-29T19:18:38.970Z,169.70
2023-01-29T19:21:11.592Z,111.10
2023-01-29T19:23:40.604Z,173.80
2023-01-29T19:26:09.391Z,110.70
2023-01-29T19:28:37.487Z,111.90
2023-01-29T19:31:05.482Z,107.90
2023-01-29T19:33:33.731Z,98.50
2023-01-29T19:36:04.857Z,68.50
2023-01-29T19:38:34.696Z,77.60
2023-01-29T19:41:03.068Z,271.20
2023-01-29T19:43:31.802Z,292.10
2023-01-29T19:46:02.102Z,166.20
2023-01-29T19:48:30.307Z,164.00
2023-01-29T19:51:01.656Z,128.40
2023-01-29T19:53:30.840Z,116.10
2023-01-29T19:56:03.950Z,208.30
2023-01-29T19:58:33.154Z,488.50
2023-01-29T20:01:13.562Z,348.10
2023-01-29T20:03:42.262Z,245.30
2023-01-29T20:06:11.327Z,110.00
2023-01-29T20:08:39.396Z,160.60
2023-01-29T20:11:07.549Z,196.40
2023-01-29T20:13:36.239Z,148.30
2023-01-29T20:16:05.525Z,124.20
2023-01-29T20:18:33.742Z,49.20
2023-01-29T20:21:13.774Z,98.00
2023-01-29T20:23:43.740Z,80.80
2023-01-29T20:26:15.799Z,371.50
2023-01-29T20:28:46.771Z,264.60
2023-01-29T20:31:15.539Z,137.80
2023-01-29T20:33:44.414Z,103.00
2023-01-29T20:36:13.057Z,110.60
2023-01-29T20:38:41.136Z,86.40
2023-01-29T20:41:11.652Z,105.00
2023-01-29T20:43:40.505Z,110.50
2023-01-29T20:46:09.295Z,144.80
2023-01-29T20:48:39.507Z,110.20
2023-01-29T20:51:15.962Z,114.80
2023-01-29T20:53:46.371Z,92.30
2023-01-29T20:56:16.349Z,69.70
2023-01-29T20:58:46.628Z,55.20
2023-01-29T21:01:18.323Z,329.00
2023-01-29T21:03:47.061Z,278.60
2023-01-29T21:06:15.863Z,111.60
2023-01-29T21:08:43.936Z,90.10
2023-01-29T21:11:11.804Z,140.50
2023-01-29T21:13:39.757Z,206.90
2023-01-29T21:16:08.521Z,293.20
2023-01-29T21:18:36.490Z,133.50
2023-01-29T21:21:04.927Z,76.30
2023-01-29T21:23:32.779Z,170.50
2023-01-29T21:26:05.539Z,132.60
2023-01-29T21:28:34.623Z,108.90
2023-01-29T21:31:10.587Z,130.10
2023-01-29T21:33:38.596Z,75.20
2023-01-29T21:36:07.574Z,55.30
2023-01-29T21:38:36.495Z,85.20
2023-01-29T21:41:07.204Z,52.90
2023-01-29T21:43:35.613Z,48.90
2023-01-29T21:46:11.416Z,55.10
2023-01-29T21:48:40.863Z,38.00
2023-01-29T21:51:08.859Z,34.20
2023-01-29T21:53:37.386Z,97.40
2023-01-29T21:56:06.257Z,178.20
2023-01-29T21:58:34.110Z,96.80
2023-01-29T22:01:22.872Z,74.10
2023-01-29T22:03:50.243Z,79.20
2023-01-29T22:06:18.120Z,53.90
2023-01-29T22:08:48.966Z,52.00
2023-01-29T22:11:17.218Z,327.40
2023-01-29T22:13:45.225Z,205.50
2023-01-29T22:16:13.172Z,89.50
2023-01-29T22:18:41.157Z,91.80
2023-01-29T22:21:09.207Z,113.70
2023-01-29T22:23:38.073Z,86.00
2023-01-29T22:26:07.564Z,118.20
2023-01-29T22:28:35.491Z,207.30
2023-01-29T22:31:05.118Z,147.20
2023-01-29T22:33:33.613Z,103.90
2023-01-29T22:36:02.297Z,150.80
2023-01-29T22:38:30.887Z,57.60
2023-01-29T22:41:00.207Z,131.80
2023-01-29T22:43:29.381Z,148.80
2023-01-29T22:45:57.550Z,138.80
2023-01-29T22:48:25.582Z,79.00
2023-01-29T22:51:10.154Z,54.80
2023-01-29T22:53:52.695Z,62.10
2023-01-29T22:56:25.365Z,144.50
2023-01-29T22:58:55.734Z,228.70
2023-01-29T23:01:27.593Z,126.00
2023-01-29T23:03:55.483Z,139.50
2023-01-29T23:06:23.780Z,57.60
2023-01-29T23:08:52.085Z,53.70
2023-01-29T23:11:21.585Z,182.90
2023-01-29T23:13:54.633Z,84.40
2023-01-29T23:16:27.000Z,146.30
2023-01-29T23:18:57.294Z,85.10
2023-01-29T23:21:26.188Z,107.80
2023-01-29T23:23:57.061Z,158.20
2023-01-29T23:26:44.208Z,190.30
2023-01-29T23:29:12.776Z,235.10
2023-01-29T23:31:41.035Z,260.90
2023-01-29T23:34:09.092Z,66.00
2023-01-29T23:36:37.096Z,177.60
2023-01-29T23:39:06.268Z,183.50
2023-01-29T23:41:34.234Z,355.30
2023-01-29T23:44:02.253Z,328.00
2023-01-29T23:46:30.895Z,215.30
2023-01-29T23:48:58.945Z,147.80
2023-01-29T23:51:27.158Z,76.40
2023-01-29T23:53:55.315Z,74.50
2023-01-29T23:56:23.193Z,50.00
2023-01-29T23:58:57.828Z,224.20
